Time;durP1;ratioP1;P1;durP2;ratioP2;P2;SDS_P1;SDS_P2;PMS_P1;PMS_P2;Temp;Humidity;BMP_temperature;BMP_pressure;BME280_temperature;BME280_humidity;BME280_pressure;Samples;Min_cycle;Max_cycle;Signal;HPM_P1;HPM_P2
2022/11/01 00:00:07;;;;;;;2.65;0.95;;;14.70;99.90;;;;;;5042165;28;20044;-84
2022/11/01 00:02:38;;;;;;;3.05;0.90;;;14.60;99.90;;;;;;5045174;28;20082;-79
2022/11/01 00:05:04;;;;;;;2.05;0.80;;;14.60;99.90;;;;;;5044075;28;20032;-75
2022/11/01 00:07:29;;;;;;;3.58;0.77;;;14.60;99.90;;;;;;5029488;28;20037;-84
2022/11/01 00:09:55;;;;;;;3.13;0.75;;;14.60;99.90;;;;;;5040602;28;20037;-75
2022/11/01 00:12:21;;;;;;;2.97;0.80;;;14.50;99.90;;;;;;5006786;28;20599;-86
2022/11/01 00:14:46;;;;;;;2.47;0.60;;;14.50;99.90;;;;;;5026971;28;20033;-79
2022/11/01 00:17:12;;;;;;;1.65;0.73;;;14.50;99.90;;;;;;5011149;28;20033;-80
2022/11/01 00:19:38;;;;;;;2.50;0.80;;;14.50;99.90;;;;;;5010918;28;20128;-81
2022/11/01 00:22:03;;;;;;;3.92;0.80;;;14.50;99.90;;;;;;5008654;28;20026;-75
2022/11/01 00:24:30;;;;;;;4.13;0.80;;;14.50;99.90;;;;;;5007778;28;20100;-80
2022/11/01 00:26:56;;;;;;;3.70;0.82;;;14.60;99.90;;;;;;5023199;28;20033;-75
2022/11/01 00:29:22;;;;;;;3.13;1.10;;;14.50;99.90;;;;;;5022249;28;20041;-85
2022/11/01 00:31:48;;;;;;;4.60;0.98;;;14.60;99.90;;;;;;5008406;28;20030;-89
2022/11/01 00:34:15;;;;;;;4.65;1.05;;;14.60;99.90;;;;;;5004934;28;20030;-80
2022/11/01 00:36:41;;;;;;;3.92;0.85;;;14.60;99.90;;;;;;5019277;28;20111;-77
2022/11/01 00:39:07;;;;;;;5.95;1.13;;;14.60;99.90;;;;;;5006730;28;20397;-82
2022/11/01 00:41:33;;;;;;;5.43;1.05;;;14.60;99.90;;;;;;5007972;28;20026;-88
2022/11/01 00:44:00;;;;;;;3.35;1.38;;;14.70;99.90;;;;;;5007589;28;20044;-84
2022/11/01 00:46:25;;;;;;;2.20;0.90;;;14.70;99.90;;;;;;5003948;28;20034;-75
2022/11/01 00:48:51;;;;;;;2.85;0.90;;;14.70;99.90;;;;;;5006612;28;20092;-77
2022/11/01 00:51:17;;;;;;;4.20;0.90;;;14.70;99.90;;;;;;5003577;28;20037;-79
2022/11/01 00:53:42;;;;;;;1.92;1.00;;;14.70;99.90;;;;;;5022949;28;20037;-75
2022/11/01 00:56:08;;;;;;;2.88;1.02;;;14.70;99.90;;;;;;5004334;28;20152;-75
2022/11/01 00:58:34;;;;;;;4.63;1.40;;;14.80;99.90;;;;;;5006472;28;20409;-74
2022/11/01 01:01:00;;;;;;;2.40;0.90;;;14.80;99.90;;;;;;5007299;28;20049;-78
2022/11/01 01:03:26;;;;;;;3.28;1.10;;;14.80;99.90;;;;;;5006302;28;20026;-87
2022/11/01 01:05:53;;;;;;;3.50;1.38;;;14.80;99.90;;;;;;5022256;28;20498;-77
2022/11/01 01:08:19;;;;;;;3.97;1.10;;;14.80;99.90;;;;;;5002407;28;20026;-77
2022/11/01 01:10:45;;;;;;;1.67;0.77;;;14.70;99.90;;;;;;5007708;28;20034;-83
2022/11/01 01:13:11;;;;;;;3.13;0.82;;;14.60;99.90;;;;;;5022145;28;20022;-79
2022/11/01 01:15:37;;;;;;;4.00;1.00;;;14.70;99.90;;;;;;5023086;28;20554;-80
2022/11/01 01:18:04;;;;;;;5.00;1.08;;;14.70;99.90;;;;;;5014412;28;20136;-75
2022/11/01 01:20:30;;;;;;;4.13;1.15;;;14.70;99.90;;;;;;5042505;28;20041;-79
2022/11/01 01:22:55;;;;;;;3.42;1.10;;;14.70;99.90;;;;;;5043329;28;20572;-75
2022/11/01 01:25:22;;;;;;;5.15;1.10;;;14.60;99.90;;;;;;5015904;28;20033;-81
2022/11/01 01:27:48;;;;;;;2.75;0.90;;;14.60;99.90;;;;;;5032698;28;20030;-83
2022/11/01 01:30:14;;;;;;;4.75;1.10;;;14.60;99.90;;;;;;5030759;28;20028;-82
2022/11/01 01:32:40;;;;;;;4.47;1.33;;;14.60;99.90;;;;;;5032782;28;20450;-82
2022/11/01 01:35:06;;;;;;;5.28;1.52;;;14.70;99.90;;;;;;5014604;28;20116;-75
2022/11/01 01:37:32;;;;;;;1.42;0.65;;;14.70;99.90;;;;;;5028040;28;20029;-81
2022/11/01 01:39:58;;;;;;;4.28;1.08;;;14.60;99.90;;;;;;5028008;28;20052;-75
2022/11/01 01:42:35;;;;;;;2.58;0.70;;;14.70;99.90;;;;;;5045672;28;20049;-75
2022/11/01 01:45:04;;;;;;;4.18;1.25;;;14.70;99.90;;;;;;5015227;28;20025;-76
2022/11/01 01:47:36;;;;;;;4.05;1.50;;;14.70;99.90;;;;;;5031758;28;20138;-77
2022/11/01 01:50:16;;;;;;;3.95;1.05;;;14.70;99.90;;;;;;5044041;28;20021;-82
2022/11/01 01:52:51;;;;;;;4.53;1.30;;;14.70;99.90;;;;;;5030306;28;20515;-78
2022/11/01 01:55:21;;;;;;;4.30;1.17;;;14.60;99.90;;;;;;5025383;28;20112;-76
2022/11/01 01:57:48;;;;;;;4.28;0.85;;;14.70;99.90;;;;;;5028480;28;20086;-75
2022/11/01 02:00:15;;;;;;;4.93;0.93;;;14.70;99.90;;;;;;5031572;28;20408;-82
2022/11/01 02:02:43;;;;;;;2.50;0.90;;;14.70;99.90;;;;;;5043037;28;20080;-79
2022/11/01 02:05:29;;;;;;;5.10;1.45;;;14.70;99.90;;;;;;5045400;28;20063;-78
2022/11/01 02:07:56;;;;;;;4.50;1.08;;;14.60;99.90;;;;;;5022333;28;20112;-78
2022/11/01 02:10:22;;;;;;;4.10;1.25;;;14.70;99.90;;;;;;5028575;28;20072;-79
2022/11/01 02:12:48;;;;;;;3.08;1.30;;;14.70;99.90;;;;;;5029729;28;20062;-78
2022/11/01 02:15:17;;;;;;;7.68;1.40;;;14.80;99.90;;;;;;5044786;28;20108;-76
2022/11/01 02:17:57;;;;;;;4.60;1.17;;;14.70;99.90;;;;;;5042743;28;20063;-75
2022/11/01 02:20:31;;;;;;;;;;;14.70;99.90;;;;;;5013642;28;20044;-75
2022/11/01 02:23:34;;;;;;;2.33;0.90;;;14.60;99.90;;;;;;5030137;28;19909;-75
2022/11/01 02:26:38;;;;;;;5.20;0.95;;;14.70;99.90;;;;;;5026093;28;20246;-77
2022/11/01 02:29:13;;;;;;;5.88;1.00;;;14.60;99.90;;;;;;5029200;28;20386;-75
2022/11/01 02:32:10;;;;;;;3.15;0.77;;;14.80;99.90;;;;;;5031635;28;20495;-75
2022/11/01 02:35:10;;;;;;;3.53;1.00;;;14.80;99.90;;;;;;5043087;28;20040;-75
2022/11/01 02:37:41;;;;;;;2.00;0.73;;;14.80;99.90;;;;;;5011477;28;20473;-80
2022/11/01 02:40:12;;;;;;;2.88;0.80;;;14.80;99.90;;;;;;5015326;28;20041;-84
2022/11/01 02:42:44;;;;;;;2.72;0.93;;;14.80;99.90;;;;;;5044004;28;20053;-76
2022/11/01 02:45:28;;;;;;;2.13;0.60;;;14.80;99.90;;;;;;5024478;28;20037;-75
2022/11/01 02:47:56;;;;;;;2.97;1.02;;;14.90;99.90;;;;;;5030879;28;20029;-75
2022/11/01 02:50:22;;;;;;;3.25;1.02;;;14.90;99.90;;;;;;5042480;28;20463;-82
2022/11/01 02:52:48;;;;;;;1.90;0.70;;;15.10;99.90;;;;;;5043432;28;20047;-75
2022/11/01 02:55:29;;;;;;;3.47;1.00;;;15.10;99.90;;;;;;5041555;28;21252;-76
2022/11/01 02:58:01;;;;;;;3.88;0.90;;;15.20;99.90;;;;;;5010025;28;20024;-76
2022/11/01 03:00:29;;;;;;;2.83;0.80;;;15.20;99.90;;;;;;5031043;28;20158;-75
2022/11/01 03:03:28;;;;;;;3.70;1.17;;;15.20;99.90;;;;;;5035407;28;20401;-75
2022/11/01 03:06:00;;;;;;;4.70;0.80;;;15.30;99.90;;;;;;5031080;28;20025;-77
2022/11/01 03:08:44;;;;;;;4.47;0.82;;;15.40;99.90;;;;;;5012723;28;20107;-86
2022/11/01 03:11:19;;;;;;;4.70;0.95;;;15.40;99.90;;;;;;5012781;28;20033;-77
2022/11/01 03:14:08;;;;;;;2.08;0.60;;;15.30;99.90;;;;;;5028526;28;20127;-81
2022/11/01 03:16:57;;;;;;;3.13;0.75;;;15.30;99.90;;;;;;5011210;28;20068;-77
2022/11/01 03:19:43;;;;;;;2.05;0.60;;;15.30;99.90;;;;;;5029616;28;20051;-85
2022/11/01 03:22:25;;;;;;;2.92;0.80;;;15.40;99.90;;;;;;5027514;28;20041;-77
2022/11/01 03:24:58;;;;;;;3.25;0.60;;;15.40;99.90;;;;;;5026667;28;20032;-75
2022/11/01 03:27:38;;;;;;;2.80;0.60;;;15.50;99.90;;;;;;5025551;28;20033;-75
2022/11/01 03:30:07;;;;;;;2.50;0.73;;;15.40;99.90;;;;;;5043641;28;20028;-74
2022/11/01 03:32:41;;;;;;;3.53;0.80;;;15.40;99.90;;;;;;5012897;28;20044;-75
2022/11/01 03:35:14;;;;;;;1.67;0.70;;;15.50;99.90;;;;;;5024665;28;20411;-75
2022/11/01 03:37:43;;;;;;;2.63;1.15;;;15.40;99.90;;;;;;5025663;28;20025;-78
2022/11/01 03:40:10;;;;;;;2.28;0.70;;;15.50;99.90;;;;;;5039627;28;20112;-75
2022/11/01 03:42:37;;;;;;;2.83;0.80;;;15.60;99.90;;;;;;5023809;28;20041;-75
2022/11/01 03:45:09;;;;;;;2.95;0.60;;;15.70;99.90;;;;;;5044089;28;20024;-76
2022/11/01 03:47:35;;;;;;;2.58;0.85;;;15.70;99.90;;;;;;5042166;28;20040;-84
2022/11/01 03:50:21;;;;;;;2.65;0.60;;;15.70;99.90;;;;;;5039910;28;20041;-84
2022/11/01 03:52:47;;;;;;;1.90;0.60;;;15.60;99.90;;;;;;5029641;28;20428;-75
2022/11/01 03:55:18;;;;;;;5.03;1.02;;;15.60;99.90;;;;;;5023819;28;20099;-75
2022/11/01 03:57:52;;;;;;;6.07;1.00;;;15.70;99.90;;;;;;5026117;28;20032;-75
2022/11/01 04:00:20;;;;;;;3.40;0.93;;;15.80;99.90;;;;;;5039908;28;20128;-84
2022/11/01 04:02:47;;;;;;;3.22;0.80;;;15.80;99.90;;;;;;5027204;28;20523;-79
2022/11/01 04:05:13;;;;;;;4.13;0.80;;;15.80;99.90;;;;;;5039704;28;20029;-75
2022/11/01 04:07:39;;;;;;;2.53;0.80;;;15.70;99.90;;;;;;5027942;28;20036;-79
2022/11/01 04:10:05;;;;;;;2.88;0.80;;;15.80;99.90;;;;;;5029222;28;20036;-76
2022/11/01 04:12:31;;;;;;;2.53;0.70;;;15.80;99.90;;;;;;5011576;28;20025;-75
2022/11/01 04:20:54;;;;;;;2.45;1.00;;;15.70;99.90;;;;;;4946619;29;20448;-82
2022/11/01 04:23:20;;;;;;;4.47;0.88;;;15.80;99.90;;;;;;4946852;29;20030;-77
2022/11/01 04:25:46;;;;;;;3.92;0.98;;;15.80;99.90;;;;;;4947468;29;20536;-77
2022/11/01 04:28:13;;;;;;;5.20;1.35;;;15.80;99.90;;;;;;4946616;29;20035;-77
2022/11/01 04:30:39;;;;;;;3.25;1.20;;;15.90;99.90;;;;;;4931362;29;20035;-84
2022/11/01 04:33:04;;;;;;;3.28;0.93;;;15.80;99.90;;;;;;4911485;29;20043;-74
2022/11/01 04:35:30;;;;;;;2.85;0.88;;;15.80;99.90;;;;;;4927629;29;20498;-81
2022/11/01 04:37:57;;;;;;;4.32;0.90;;;15.80;99.90;;;;;;4931306;29;20123;-79
2022/11/01 04:40:24;;;;;;;5.00;1.20;;;15.90;99.90;;;;;;4946959;29;20131;-78
2022/11/01 04:42:51;;;;;;;6.43;0.82;;;15.90;99.90;;;;;;4931244;29;20054;-74
2022/11/01 04:45:17;;;;;;;5.75;1.00;;;16.00;99.90;;;;;;4946446;28;20043;-84
2022/11/01 04:47:51;;;;;;;6.97;0.70;;;16.10;99.90;;;;;;4930728;29;20037;-77
2022/11/01 04:50:19;;;;;;;4.25;0.70;;;16.10;99.90;;;;;;4946913;29;20031;-77
2022/11/01 04:52:46;;;;;;;4.80;1.00;;;15.90;99.90;;;;;;5026180;28;20037;-81
2022/11/01 04:55:11;;;;;;;4.28;0.70;;;15.70;99.90;;;;;;5030121;28;20032;-86
2022/11/01 04:57:41;;;;;;;2.22;0.40;;;15.90;99.90;;;;;;5046272;28;20033;-77
2022/11/01 05:00:10;;;;;;;3.40;0.40;;;15.80;99.90;;;;;;5044493;28;20033;-76
2022/11/01 05:02:36;;;;;;;1.55;0.32;;;15.60;99.90;;;;;;5044498;28;20025;-77
2022/11/01 05:05:02;;;;;;;2.17;0.30;;;15.50;99.90;;;;;;5023441;28;20193;-77
2022/11/01 05:07:28;;;;;;;3.50;0.30;;;15.50;99.90;;;;;;5030047;28;20029;-78
2022/11/01 05:09:53;;;;;;;3.72;0.20;;;15.30;99.90;;;;;;5033382;28;20044;-79
2022/11/01 05:12:19;;;;;;;2.35;0.20;;;15.30;99.90;;;;;;5046569;28;20051;-81
2022/11/01 05:14:45;;;;;;;0.52;0.13;;;15.20;99.90;;;;;;5043740;28;20021;-78
2022/11/01 05:17:10;;;;;;;0.57;0.10;;;15.20;99.90;;;;;;5045933;28;20484;-83
2022/11/01 05:19:36;;;;;;;1.83;0.10;;;15.20;99.90;;;;;;5032789;28;20128;-77
2022/11/01 05:22:02;;;;;;;1.83;0.10;;;15.10;99.90;;;;;;5016415;28;20041;-86
2022/11/01 05:24:28;;;;;;;2.40;0.20;;;15.10;99.90;;;;;;5030344;28;20033;-74
2022/11/01 05:26:54;;;;;;;2.30;0.10;;;15.00;99.90;;;;;;5016162;28;20037;-84
2022/11/01 05:29:19;;;;;;;4.38;0.10;;;15.10;99.90;;;;;;5046268;28;20054;-77
2022/11/01 05:31:45;;;;;;;1.77;0.10;;;15.10;99.90;;;;;;5016092;28;20127;-85
2022/11/01 05:34:11;;;;;;;1.25;0.15;;;15.10;99.90;;;;;;5032735;28;20036;-77
2022/11/01 05:36:36;;;;;;;1.45;0.10;;;15.00;99.90;;;;;;5015389;28;20083;-77
2022/11/01 05:39:02;;;;;;;0.75;0.10;;;14.90;99.90;;;;;;5044087;28;20017;-78
2022/11/01 05:41:28;;;;;;;1.65;0.13;;;14.60;99.90;;;;;;5043003;28;20504;-80
2022/11/01 05:43:54;;;;;;;6.43;0.22;;;14.40;99.90;;;;;;5029728;28;20036;-79
2022/11/01 05:46:19;;;;;;;0.60;0.10;;;14.30;99.90;;;;;;5045913;28;20047;-77
2022/11/01 05:48:45;;;;;;;1.52;0.10;;;14.40;99.90;;;;;;5048335;28;20025;-75
2022/11/01 05:51:10;;;;;;;1.33;0.10;;;14.30;99.90;;;;;;5044659;28;20021;-80
2022/11/01 05:53:36;;;;;;;1.55;0.20;;;14.40;99.90;;;;;;5032717;28;20044;-80
2022/11/01 05:56:02;;;;;;;1.95;0.30;;;14.20;99.90;;;;;;5030178;28;20039;-76
2022/11/01 05:58:28;;;;;;;1.85;0.10;;;14.20;99.90;;;;;;5042017;28;20394;-79
2022/11/01 06:01:03;;;;;;;0.80;0.20;;;14.20;99.90;;;;;;5042552;28;20036;-77
2022/11/01 06:03:30;;;;;;;1.33;0.17;;;14.20;99.90;;;;;;5025330;28;20029;-76
2022/11/01 06:05:56;;;;;;;1.67;0.10;;;14.10;99.90;;;;;;5030608;28;20033;-77
2022/11/01 06:08:22;;;;;;;1.27;0.10;;;14.10;99.90;;;;;;5038387;28;20108;-76
2022/11/01 06:10:48;;;;;;;1.75;0.10;;;13.90;99.90;;;;;;5043859;28;20144;-81
2022/11/01 06:13:14;;;;;;;0.95;0.10;;;13.90;99.90;;;;;;5029974;28;20482;-76
2022/11/01 06:15:40;;;;;;;3.60;0.20;;;13.90;99.90;;;;;;5024943;28;20116;-83
2022/11/01 06:18:06;;;;;;;2.72;0.10;;;13.90;99.90;;;;;;5043377;28;20045;-77
2022/11/01 06:20:32;;;;;;;2.22;0.10;;;13.80;99.90;;;;;;5031522;28;20069;-81
2022/11/01 06:22:59;;;;;;;1.65;0.10;;;13.80;99.90;;;;;;5023344;28;20056;-86
2022/11/01 06:25:26;;;;;;;1.58;0.20;;;13.80;99.90;;;;;;5034351;28;20036;-77
2022/11/01 06:27:55;;;;;;;1.65;0.15;;;13.80;99.90;;;;;;5011244;28;20120;-76
2022/11/01 06:30:20;;;;;;;0.57;0.10;;;13.60;99.90;;;;;;4971484;28;20049;-79
2022/11/01 06:32:48;;;;;;;1.30;0.10;;;13.50;99.90;;;;;;5013538;28;20029;-76
2022/11/01 06:35:17;;;;;;;1.95;0.10;;;13.50;99.90;;;;;;5015039;28;20063;-75
2022/11/01 06:37:42;;;;;;;1.70;0.10;;;13.50;99.90;;;;;;4972987;28;20082;-80
2022/11/01 06:40:08;;;;;;;3.53;0.20;;;13.40;99.90;;;;;;5013585;28;20045;-83
2022/11/01 06:42:34;;;;;;;0.70;0.20;;;13.50;99.90;;;;;;5018053;28;20021;-75
2022/11/01 06:45:00;;;;;;;1.10;0.10;;;13.40;99.90;;;;;;5037143;28;20375;-76
2022/11/01 06:47:25;;;;;;;0.88;0.10;;;13.40;99.90;;;;;;5017952;28;20033;-78
2022/11/01 06:49:51;;;;;;;0.45;0.00;;;13.40;99.90;;;;;;5034787;28;20034;-76
2022/11/01 06:52:16;;;;;;;1.05;0.08;;;13.40;99.90;;;;;;5019578;28;20017;-84
2022/11/01 06:54:42;;;;;;;0.93;0.10;;;13.40;99.90;;;;;;5022099;28;20393;-76
2022/11/01 06:57:08;;;;;;;0.65;0.10;;;13.50;99.90;;;;;;5011967;28;20522;-76
2022/11/01 06:59:33;;;;;;;0.70;0.10;;;13.50;99.90;;;;;;5007249;28;20406;-75
2022/11/01 07:01:59;;;;;;;1.20;0.10;;;13.40;99.90;;;;;;5037144;28;20025;-81
2022/11/01 07:04:26;;;;;;;2.35;0.10;;;13.50;99.90;;;;;;5032106;28;20575;-77
2022/11/01 07:06:52;;;;;;;2.90;0.10;;;13.40;99.90;;;;;;5009134;28;20533;-77
2022/11/01 07:09:18;;;;;;;1.45;0.10;;;13.20;99.90;;;;;;5017876;28;20021;-76
2022/11/01 07:11:44;;;;;;;2.00;0.10;;;13.20;99.90;;;;;;5025240;28;20044;-76
2022/11/01 07:14:09;;;;;;;2.15;0.15;;;13.20;99.90;;;;;;5038415;28;20013;-76
2022/11/01 07:16:35;;;;;;;1.40;0.40;;;13.20;99.90;;;;;;5009224;28;20436;-76
2022/11/01 07:19:01;;;;;;;2.38;0.10;;;13.10;99.90;;;;;;5035601;28;20044;-77
2022/11/01 07:21:27;;;;;;;2.75;0.10;;;13.20;99.90;;;;;;5020179;28;20698;-76
2022/11/01 07:23:53;;;;;;;3.22;0.20;;;13.20;99.90;;;;;;5037101;28;20119;-78
2022/11/01 07:26:19;;;;;;;2.25;0.20;;;13.30;99.90;;;;;;5014855;28;20052;-77
2022/11/01 07:28:45;;;;;;;3.67;0.20;;;13.30;99.90;;;;;;4989934;28;20028;-76
2022/11/01 07:31:11;;;;;;;2.97;0.10;;;13.30;99.90;;;;;;5011776;28;20036;-76
2022/11/01 07:33:36;;;;;;;3.67;0.20;;;13.30;99.90;;;;;;5037201;28;20029;-76
2022/11/01 07:36:03;;;;;;;2.80;0.10;;;13.30;99.90;;;;;;5024259;28;20503;-76
2022/11/01 07:38:29;;;;;;;1.67;0.10;;;13.20;99.90;;;;;;5026531;28;20029;-76
2022/11/01 07:40:54;;;;;;;0.98;0.15;;;13.10;99.90;;;;;;5010471;28;20363;-76
2022/11/01 07:43:20;;;;;;;3.70;0.20;;;13.20;99.90;;;;;;5037428;28;20448;-77
2022/11/01 07:45:46;;;;;;;1.95;0.20;;;13.20;99.90;;;;;;5032896;28;20083;-76
2022/11/01 07:48:14;;;;;;;2.30;0.32;;;13.20;99.90;;;;;;5005795;28;20029;-77
2022/11/01 07:50:42;;;;;;;1.42;0.15;;;13.20;99.90;;;;;;5015729;28;20032;-75
2022/11/01 07:53:10;;;;;;;3.35;0.25;;;13.20;99.90;;;;;;5022581;28;20102;-76
2022/11/01 07:55:36;;;;;;;4.10;0.20;;;13.30;99.90;;;;;;5036106;28;20044;-76
2022/11/01 07:58:03;;;;;;;2.33;0.35;;;13.40;99.90;;;;;;5018988;28;20044;-80
2022/11/01 08:00:30;;;;;;;4.82;0.75;;;13.30;99.90;;;;;;5037809;28;21044;-84
2022/11/01 08:03:11;;;;;;;1.67;0.17;;;13.50;99.90;;;;;;5023988;28;20159;-76
2022/11/01 08:05:37;;;;;;;2.33;0.30;;;13.50;99.90;;;;;;5023582;28;20025;-78
2022/11/01 08:08:04;;;;;;;5.57;0.40;;;13.60;99.90;;;;;;5001059;28;20060;-75
2022/11/01 08:10:30;;;;;;;4.45;0.20;;;13.60;99.90;;;;;;5011496;28;20044;-76
2022/11/01 08:13:01;;;;;;;4.13;0.30;;;13.60;99.90;;;;;;5006367;28;20021;-83
2022/11/01 08:15:27;;;;;;;4.15;0.30;;;13.60;99.90;;;;;;5024629;28;20040;-78
2022/11/01 08:17:57;;;;;;;2.53;0.20;;;13.70;99.90;;;;;;5036858;28;20202;-75
2022/11/01 08:20:24;;;;;;;2.08;0.20;;;13.80;99.90;;;;;;5035919;28;20041;-80
2022/11/01 08:22:49;;;;;;;2.50;0.30;;;13.80;99.90;;;;;;5034833;28;20106;-78
2022/11/01 08:25:17;;;;;;;5.90;0.30;;;13.80;99.90;;;;;;5036568;28;20075;-87
2022/11/01 08:27:42;;;;;;;5.38;0.30;;;13.80;99.90;;;;;;5036127;28;20057;-79
2022/11/01 08:30:09;;;;;;;2.22;0.20;;;13.80;99.90;;;;;;5018261;28;20837;-78
2022/11/01 08:32:34;;;;;;;2.25;0.10;;;14.00;99.90;;;;;;5022966;28;20029;-76
2022/11/01 08:35:00;;;;;;;2.95;0.20;;;14.00;99.90;;;;;;5019561;28;20033;-77
2022/11/01 08:37:25;;;;;;;3.47;0.30;;;14.00;99.90;;;;;;4989863;28;20341;-77
2022/11/01 08:39:51;;;;;;;4.72;0.30;;;14.10;99.90;;;;;;5005965;28;20363;-77
2022/11/01 08:42:17;;;;;;;4.10;0.40;;;14.10;99.90;;;;;;5029207;28;20497;-78
2022/11/01 08:44:42;;;;;;;3.42;0.30;;;14.10;99.90;;;;;;5000213;28;20386;-76
2022/11/01 08:47:08;;;;;;;5.03;0.20;;;14.20;99.90;;;;;;5012851;28;20163;-76
2022/11/01 08:49:34;;;;;;;3.08;0.32;;;14.20;99.90;;;;;;5013062;28;20433;-76
2022/11/01 08:52:00;;;;;;;2.95;0.20;;;14.30;99.90;;;;;;5009901;28;20463;-76
2022/11/01 08:54:25;;;;;;;3.67;0.40;;;14.30;99.90;;;;;;5016515;28;20040;-81
2022/11/01 08:56:51;;;;;;;4.80;0.30;;;14.20;99.90;;;;;;5003180;28;20045;-76
2022/11/01 08:59:16;;;;;;;2.50;0.22;;;14.30;99.90;;;;;;5015880;28;20141;-83
2022/11/01 09:01:42;;;;;;;4.28;0.38;;;14.30;99.90;;;;;;4998770;28;20094;-76
2022/11/01 09:04:08;;;;;;;4.28;0.32;;;14.40;99.90;;;;;;5014330;28;20041;-75
2022/11/01 09:06:34;;;;;;;3.25;0.30;;;14.40;99.90;;;;;;5016428;28;20025;-77
2022/11/01 09:08:59;;;;;;;4.47;0.30;;;14.40;99.90;;;;;;5019308;28;20475;-76
2022/11/01 09:11:25;;;;;;;6.53;0.57;;;14.50;99.90;;;;;;5002665;28;20511;-76
2022/11/01 09:13:56;;;;;;;6.10;0.30;;;14.40;99.90;;;;;;4998075;28;20033;-76
2022/11/01 09:16:22;;;;;;;4.05;0.30;;;14.60;99.90;;;;;;5019964;28;20024;-76
2022/11/01 09:18:48;;;;;;;6.30;0.30;;;14.50;99.90;;;;;;4990986;28;20607;-77
2022/11/01 09:21:16;;;;;;;3.22;0.20;;;14.50;99.90;;;;;;5002811;28;20045;-76
2022/11/01 09:23:41;;;;;;;3.97;0.35;;;14.60;99.90;;;;;;5022736;28;20048;-77
2022/11/01 09:26:09;;;;;;;8.57;0.40;;;14.70;99.90;;;;;;4995236;28;20056;-76
2022/11/01 09:28:35;;;;;;;2.65;0.35;;;14.70;99.90;;;;;;4983929;28;21176;-76
2022/11/01 09:31:02;;;;;;;5.75;0.30;;;14.60;99.90;;;;;;5013221;28;20045;-79
2022/11/01 09:33:29;;;;;;;7.82;0.40;;;14.80;99.90;;;;;;4996017;28;20124;-80
2022/11/01 09:35:55;;;;;;;4.20;0.47;;;14.70;99.90;;;;;;5002059;28;20161;-77
2022/11/01 09:38:20;;;;;;;7.32;0.35;;;14.80;99.90;;;;;;5009907;28;20033;-78
2022/11/01 09:40:54;;;;;;;3.90;0.30;;;14.80;99.90;;;;;;4992350;28;20200;-77
2022/11/01 09:43:23;;;;;;;3.30;0.32;;;14.80;99.90;;;;;;5025453;28;20038;-76
2022/11/01 09:45:51;;;;;;;6.45;0.40;;;14.90;99.90;;;;;;4992028;28;20102;-77
2022/11/01 09:48:18;;;;;;;11.13;0.40;;;14.80;99.90;;;;;;5021944;28;20024;-82
2022/11/01 09:50:44;;;;;;;7.82;0.43;;;14.80;99.90;;;;;;5019404;28;20176;-76
2022/11/01 09:53:19;;;;;;;11.38;0.40;;;14.90;99.90;;;;;;5020494;28;20048;-76
2022/11/01 09:56:03;;;;;;;8.23;0.32;;;14.90;99.90;;;;;;5023147;28;20038;-75
2022/11/01 09:58:51;;;;;;;5.32;0.40;;;14.90;99.90;;;;;;5021516;28;20108;-76
2022/11/01 10:01:45;;;;;;;7.18;0.40;;;15.00;99.90;;;;;;5012021;28;20045;-80
2022/11/01 10:04:48;;;;;;;7.60;0.35;;;15.10;99.90;;;;;;5000416;28;20038;-75
2022/11/01 10:07:38;;;;;;;5.13;0.52;;;15.00;99.90;;;;;;5013402;28;20033;-76
2022/11/01 10:10:16;;;;;;;3.55;0.30;;;15.20;99.90;;;;;;5025004;28;20460;-77
2022/11/01 10:13:18;;;;;;;5.53;0.40;;;15.20;99.90;;;;;;5003754;28;20033;-76
2022/11/01 10:16:22;;;;;;;1.95;0.20;;;15.30;99.90;;;;;;5019292;28;20056;-77
2022/11/01 10:19:10;;;;;;;6.45;0.35;;;15.40;99.90;;;;;;5022052;28;20050;-78
2022/11/01 10:21:43;;;;;;;4.90;0.40;;;15.40;99.90;;;;;;4986348;28;20097;-77
2022/11/01 10:24:36;;;;;;;2.72;0.28;;;15.50;99.90;;;;;;4981885;28;20033;-76
2022/11/01 10:27:30;;;;;;;6.13;0.30;;;15.40;99.90;;;;;;5000450;28;20036;-77
2022/11/01 10:30:09;;;;;;;5.20;0.38;;;15.60;99.90;;;;;;4995079;28;20053;-76
2022/11/01 10:32:35;;;;;;;5.45;0.30;;;15.50;99.90;;;;;;5003413;28;20367;-76
2022/11/01 10:35:28;;;;;;;6.30;0.40;;;15.60;99.90;;;;;;5012880;28;21002;-76
2022/11/01 10:38:13;;;;;;;4.03;0.20;;;15.50;99.90;;;;;;5020911;28;20124;-76
2022/11/01 10:41:07;;;;;;;4.78;0.30;;;15.60;99.90;;;;;;5023319;28;20045;-76
2022/11/01 10:43:37;;;;;;;2.58;0.30;;;15.70;99.90;;;;;;5008709;28;20045;-76
2022/11/01 10:46:07;;;;;;;7.40;0.40;;;15.80;99.90;;;;;;4993114;28;20150;-76
2022/11/01 10:48:37;;;;;;;;;;;15.60;99.90;;;;;;5003055;28;20401;-77
2022/11/01 10:51:05;;;;;;;6.53;0.50;;;15.70;99.90;;;;;;4999903;28;19959;-77
2022/11/01 10:53:42;;;;;;;4.82;0.47;;;15.60;99.90;;;;;;5006935;28;20163;-77
2022/11/01 10:56:14;;;;;;;10.90;0.70;;;15.50;99.90;;;;;;5019105;28;20040;-76
2022/11/01 10:59:04;;;;;;;5.55;0.43;;;15.70;99.90;;;;;;5003664;28;20445;-76
2022/11/01 11:01:42;;;;;;;5.07;0.82;;;15.60;99.90;;;;;;5000660;28;20045;-76
2022/11/01 11:04:14;;;;;;;4.95;0.30;;;15.70;99.90;;;;;;5011550;28;20509;-77
2022/11/01 11:06:41;;;;;;;4.88;0.52;;;15.90;99.90;;;;;;4977939;28;20028;-77
2022/11/01 11:09:20;;;;;;;6.30;0.43;;;15.90;99.90;;;;;;5000301;28;20572;-76
2022/11/01 11:11:47;;;;;;;6.50;0.40;;;15.80;99.90;;;;;;5001009;28;20040;-77
2022/11/01 11:14:14;;;;;;;3.65;0.30;;;16.00;99.90;;;;;;4981272;28;20444;-76
2022/11/01 11:16:45;;;;;;;3.47;0.32;;;16.00;99.90;;;;;;5001435;28;20037;-76
2022/11/01 11:19:18;;;;;;;6.25;0.50;;;16.00;99.90;;;;;;5001051;28;20049;-76
2022/11/01 11:21:46;;;;;;;3.80;0.40;;;16.00;99.90;;;;;;5000482;28;20041;-76
2022/11/01 11:24:21;;;;;;;6.25;0.60;;;15.90;99.90;;;;;;5003756;28;20069;-76
2022/11/01 11:26:50;;;;;;;5.35;0.40;;;16.00;99.90;;;;;;5001806;28;20041;-76
2022/11/01 11:29:26;;;;;;;4.53;0.38;;;15.90;99.90;;;;;;5000840;28;20086;-77
2022/11/01 11:31:58;;;;;;;4.47;0.63;;;16.00;99.90;;;;;;5002448;28;20041;-79
2022/11/01 11:34:33;;;;;;;6.65;0.40;;;16.00;99.90;;;;;;5001789;28;20033;-77
2022/11/01 11:37:02;;;;;;;5.93;0.30;;;16.10;99.90;;;;;;5000620;28;20052;-76
2022/11/01 11:39:30;;;;;;;4.47;0.30;;;16.00;99.90;;;;;;5016777;28;20374;-78
2022/11/01 11:42:17;;;;;;;5.35;0.40;;;16.20;99.90;;;;;;5001985;28;20517;-76
2022/11/01 11:44:44;;;;;;;4.88;0.30;;;16.20;99.90;;;;;;5017891;28;20805;-77
2022/11/01 11:47:28;;;;;;;4.53;0.50;;;16.20;99.90;;;;;;4981216;28;20080;-77
2022/11/01 11:49:57;;;;;;;5.35;0.40;;;16.10;99.90;;;;;;5012189;28;20116;-76
2022/11/01 11:52:30;;;;;;;7.00;0.30;;;16.20;99.90;;;;;;5000789;28;20035;-86
2022/11/01 11:54:55;;;;;;;4.00;0.40;;;16.20;99.90;;;;;;5004080;28;20040;-77
2022/11/01 11:57:28;;;;;;;4.78;0.40;;;16.20;99.90;;;;;;4998508;28;20053;-77
2022/11/01 11:59:57;;;;;;;6.10;0.38;;;16.20;99.90;;;;;;5017863;28;20053;-77
2022/11/01 12:02:30;;;;;;;4.85;0.30;;;16.20;99.90;;;;;;4991500;28;20120;-77
2022/11/01 12:05:02;;;;;;;5.53;0.30;;;16.20;99.90;;;;;;5017290;28;20047;-76
2022/11/01 12:07:34;;;;;;;3.75;0.50;;;16.10;99.90;;;;;;5001286;28;20025;-76
2022/11/01 12:10:03;;;;;;;4.80;0.30;;;16.10;99.90;;;;;;5001676;28;20044;-77
2022/11/01 12:12:34;;;;;;;5.72;0.30;;;16.20;99.90;;;;;;5016879;28;20028;-76
2022/11/01 12:15:02;;;;;;;3.08;0.32;;;16.20;99.90;;;;;;5017561;28;20037;-77
2022/11/01 12:17:35;;;;;;;6.70;0.40;;;16.30;99.90;;;;;;5016932;28;20040;-78
2022/11/01 12:20:08;;;;;;;6.00;0.70;;;16.20;99.90;;;;;;5019768;28;20656;-76
2022/11/01 12:22:39;;;;;;;4.13;0.30;;;16.20;99.90;;;;;;5020278;28;20171;-76
2022/11/01 12:25:11;;;;;;;2.95;0.20;;;16.20;99.90;;;;;;5002589;28;20148;-86
2022/11/01 12:27:45;;;;;;;3.58;0.30;;;16.30;99.90;;;;;;5005255;28;20029;-76
2022/11/01 12:30:18;;;;;;;3.28;0.40;;;16.30;99.90;;;;;;4997462;28;20056;-77
2022/11/01 12:32:52;;;;;;;4.40;0.30;;;16.30;99.90;;;;;;5016558;28;20041;-77
2022/11/01 12:35:21;;;;;;;4.15;0.30;;;16.30;99.90;;;;;;5017717;28;20493;-76
2022/11/01 12:38:06;;;;;;;3.15;0.20;;;16.40;99.90;;;;;;4985347;28;20034;-76
2022/11/01 12:40:41;;;;;;;3.15;0.20;;;16.50;99.90;;;;;;5000686;28;20048;-84
2022/11/01 12:43:49;;;;;;;3.35;0.20;;;16.60;99.90;;;;;;5017520;28;20032;-82
2022/11/01 12:46:23;;;;;;;2.80;0.20;;;16.50;99.90;;;;;;4973238;28;20045;-78
2022/11/01 12:48:55;;;;;;;5.32;0.50;;;16.50;99.90;;;;;;4999754;28;20573;-76
2022/11/01 12:51:47;;;;;;;3.80;0.22;;;16.50;99.90;;;;;;5004889;28;20037;-77
2022/11/01 12:54:15;;;;;;;1.90;0.20;;;16.50;99.90;;;;;;4979818;28;20364;-77
2022/11/01 12:56:41;;;;;;;4.97;0.40;;;16.60;99.90;;;;;;5002744;28;20698;-76
2022/11/01 12:59:11;;;;;;;5.03;0.55;;;16.50;99.90;;;;;;5014896;28;20269;-84
2022/11/01 13:02:22;;;;;;;2.55;0.20;;;16.50;99.90;;;;;;4976727;28;20045;-76
2022/11/01 13:05:07;;;;;;;3.08;0.20;;;16.30;99.90;;;;;;4982927;28;20497;-83
2022/11/01 13:07:50;;;;;;;1.85;0.20;;;16.50;99.90;;;;;;5008469;28;20029;-80
2022/11/01 13:10:34;;;;;;;2.13;0.30;;;16.60;99.90;;;;;;5002649;28;20119;-76